sensor_id;sensor_type;location;lat;lon;timestamp;pressure;altitude;pressure_sealevel;temperature;humidity
22657;BME280;11495;55.610;12.100;2022-07-29T00:02:01;101914.91;;;10.29;0.00
22657;BME280;11495;55.610;12.100;2022-07-29T00:04:26;101910.41;;;10.23;0.00
22657;BME280;11495;55.610;12.100;2022-07-29T00:06:51;101908.13;;;10.20;0.00
22657;BME280;11495;55.610;12.100;2022-07-29T00:09:17;101908.00;;;10.15;0.00
22657;BME280;11495;55.610;12.100;2022-07-29T00:11:42;101907.44;;;10.13;0.00
22657;BME280;11495;55.610;12.100;2022-07-29T00:14:08;101912.59;;;10.09;0.00
22657;BME280;11495;55.610;12.100;2022-07-29T00:16:34;101917.72;;;10.06;0.00
22657;BME280;11495;55.610;12.100;2022-07-29T00:18:59;101914.87;;;10.01;0.00
22657;BME280;11495;55.610;12.100;2022-07-29T00:21:25;101917.28;;;9.97;0.00
22657;BME280;11495;55.610;12.100;2022-07-29T00:23:50;101918.00;;;9.93;0.00
22657;BME280;11495;55.610;12.100;2022-07-29T00:26:16;101905.59;;;9.90;0.00
22657;BME280;11495;55.610;12.100;2022-07-29T00:28:41;101903.22;;;9.94;0.00
22657;BME280;11495;55.610;12.100;2022-07-29T00:31:07;101909.38;;;10.01;0.00
22657;BME280;11495;55.610;12.100;2022-07-29T00:33:33;101901.13;;;10.01;0.00
22657;BME280;11495;55.610;12.100;2022-07-29T00:35:58;101910.69;;;9.98;0.00
22657;BME280;11495;55.610;12.100;2022-07-29T00:38:24;101916.69;;;9.95;0.00
22657;BME280;11495;55.610;12.100;2022-07-29T00:40:49;101909.75;;;9.93;0.00
22657;BME280;11495;55.610;12.100;2022-07-29T00:43:16;101901.75;;;9.91;0.00
22657;BME280;11495;55.610;12.100;2022-07-29T00:45:42;101901.88;;;9.96;0.00
22657;BME280;11495;55.610;12.100;2022-07-29T00:48:07;101907.50;;;10.01;0.00
22657;BME280;11495;55.610;12.100;2022-07-29T00:50:34;101900.28;;;10.00;0.00
22657;BME280;11495;55.610;12.100;2022-07-29T00:53:00;101903.28;;;9.99;0.00
22657;BME280;11495;55.610;12.100;2022-07-29T00:55:26;101896.00;;;10.04;0.00
22657;BME280;11495;55.610;12.100;2022-07-29T00:57:52;101895.59;;;10.12;0.00
22657;BME280;11495;55.610;12.100;2022-07-29T01:00:21;101890.31;;;10.23;0.00
22657;BME280;11495;55.610;12.100;2022-07-29T01:02:47;101886.84;;;10.27;0.00
22657;BME280;11495;55.610;12.100;2022-07-29T01:05:13;101890.28;;;10.34;0.00
22657;BME280;11495;55.610;12.100;2022-07-29T01:07:39;101888.56;;;10.33;0.00
22657;BME280;11495;55.610;12.100;2022-07-29T01:10:08;101890.75;;;10.31;0.00
22657;BME280;11495;55.610;12.100;2022-07-29T01:12:35;101886.34;;;10.30;0.00
22657;BME280;11495;55.610;12.100;2022-07-29T01:15:03;101883.84;;;10.29;0.00
22657;BME280;11495;55.610;12.100;2022-07-29T01:20:15;101880.25;;;10.28;0.00
22657;BME280;11495;55.610;12.100;2022-07-29T01:31:29;101867.19;;;10.35;0.00
22657;BME280;11495;55.610;12.100;2022-07-29T01:33:58;101858.69;;;10.37;0.00
22657;BME280;11495;55.610;12.100;2022-07-29T01:36:36;101853.66;;;10.34;0.00
22657;BME280;11495;55.610;12.100;2022-07-29T01:39:10;101858.84;;;10.30;0.00
22657;BME280;11495;55.610;12.100;2022-07-29T01:41:40;101858.25;;;10.28;0.00
22657;BME280;11495;55.610;12.100;2022-07-29T01:44:12;101847.84;;;10.30;0.00
22657;BME280;11495;55.610;12.100;2022-07-29T01:46:44;101839.84;;;10.29;0.00
22657;BME280;11495;55.610;12.100;2022-07-29T01:49:35;101832.56;;;10.23;0.00
22657;BME280;11495;55.610;12.100;2022-07-29T01:52:05;101830.31;;;10.20;0.00
22657;BME280;11495;55.610;12.100;2022-07-29T01:54:39;101822.31;;;10.18;0.00
22657;BME280;11495;55.610;12.100;2022-07-29T01:57:09;101825.63;;;10.20;0.00
22657;BME280;11495;55.610;12.100;2022-07-29T01:59:37;101825.06;;;10.18;0.00
22657;BME280;11495;55.610;12.100;2022-07-29T02:02:04;101811.22;;;10.13;0.00
22657;BME280;11495;55.610;12.100;2022-07-29T02:04:32;101805.47;;;10.14;0.00
22657;BME280;11495;55.610;12.100;2022-07-29T02:07:04;101784.31;;;10.15;0.00
22657;BME280;11495;55.610;12.100;2022-07-29T02:09:31;101791.97;;;10.13;0.00
22657;BME280;11495;55.610;12.100;2022-07-29T02:11:59;101782.06;;;10.12;0.00
22657;BME280;11495;55.610;12.100;2022-07-29T02:14:28;101782.22;;;10.05;0.00
22657;BME280;11495;55.610;12.100;2022-07-29T02:16:58;101785.06;;;9.94;0.00
22657;BME280;11495;55.610;12.100;2022-07-29T02:19:26;101786.44;;;9.79;0.00
22657;BME280;11495;55.610;12.100;2022-07-29T02:21:54;101793.03;;;9.67;0.00
22657;BME280;11495;55.610;12.100;2022-07-29T02:24:23;101797.69;;;9.66;0.00
22657;BME280;11495;55.610;12.100;2022-07-29T02:26:50;101792.34;;;9.88;0.00
22657;BME280;11495;55.610;12.100;2022-07-29T02:29:17;101778.53;;;10.00;0.00
22657;BME280;11495;55.610;12.100;2022-07-29T02:31:46;101768.22;;;10.07;0.00
22657;BME280;11495;55.610;12.100;2022-07-29T02:34:14;101750.16;;;10.11;0.00
22657;BME280;11495;55.610;12.100;2022-07-29T02:36:42;101722.94;;;10.09;0.00
22657;BME280;11495;55.610;12.100;2022-07-29T02:39:09;101709.09;;;10.04;0.00
22657;BME280;11495;55.610;12.100;2022-07-29T02:42:01;101709.25;;;9.98;0.00
22657;BME280;11495;55.610;12.100;2022-07-29T02:44:28;101707.84;;;9.95;0.00
22657;BME280;11495;55.610;12.100;2022-07-29T02:46:59;101702.00;;;9.92;0.00
22657;BME280;11495;55.610;12.100;2022-07-29T02:52:00;101697.53;;;9.85;0.00
22657;BME280;11495;55.610;12.100;2022-07-29T02:54:41;101688.88;;;9.94;0.00
22657;BME280;11495;55.610;12.100;2022-07-29T02:57:49;101691.00;;;9.92;0.00
22657;BME280;11495;55.610;12.100;2022-07-29T03:00:16;101671.97;;;9.85;0.00
22657;BME280;11495;55.610;12.100;2022-07-29T03:02:44;101669.81;;;9.87;0.00
22657;BME280;11495;55.610;12.100;2022-07-29T03:05:14;101667.78;;;9.99;0.00
22657;BME280;11495;55.610;12.100;2022-07-29T03:07:43;101656.72;;;10.11;0.00
22657;BME280;11495;55.610;12.100;2022-07-29T03:10:11;101643.13;;;10.21;0.00
22657;BME280;11495;55.610;12.100;2022-07-29T03:12:37;101637.28;;;10.18;0.00
22657;BME280;11495;55.610;12.100;2022-07-29T03:15:04;101638.06;;;10.13;0.00
22657;BME280;11495;55.610;12.100;2022-07-29T03:17:30;101640.72;;;10.08;0.00
22657;BME280;11495;55.610;12.100;2022-07-29T03:19:57;101649.16;;;10.01;0.00
22657;BME280;11495;55.610;12.100;2022-07-29T03:22:24;101657.06;;;9.98;0.00
22657;BME280;11495;55.610;12.100;2022-07-29T03:24:49;101651.56;;;9.98;0.00
22657;BME280;11495;55.610;12.100;2022-07-29T03:27:14;101644.97;;;9.99;0.00
22657;BME280;11495;55.610;12.100;2022-07-29T03:29:40;101645.53;;;10.01;0.00
22657;BME280;11495;55.610;12.100;2022-07-29T03:32:06;101644.53;;;10.07;0.00
22657;BME280;11495;55.610;12.100;2022-07-29T03:34:31;101639.12;;;10.12;0.00
22657;BME280;11495;55.610;12.100;2022-07-29T03:36:56;101640.88;;;10.18;0.00
22657;BME280;11495;55.610;12.100;2022-07-29T03:39:25;101636.87;;;10.26;0.00
22657;BME280;11495;55.610;12.100;2022-07-29T03:41:55;101637.78;;;10.31;0.00
22657;BME280;11495;55.610;12.100;2022-07-29T03:44:22;101630.06;;;10.28;0.00
22657;BME280;11495;55.610;12.100;2022-07-29T03:46:50;101634.22;;;10.31;0.00
22657;BME280;11495;55.610;12.100;2022-07-29T03:49:16;101629.06;;;10.34;0.00
22657;BME280;11495;55.610;12.100;2022-07-29T03:51:43;101633.50;;;10.40;0.00
22657;BME280;11495;55.610;12.100;2022-07-29T03:54:08;101629.19;;;10.45;0.00
22657;BME280;11495;55.610;12.100;2022-07-29T03:56:38;101627.91;;;10.52;0.00
22657;BME280;11495;55.610;12.100;2022-07-29T03:59:05;101625.81;;;10.59;0.00
22657;BME280;11495;55.610;12.100;2022-07-29T04:01:33;101618.44;;;10.65;0.00
22657;BME280;11495;55.610;12.100;2022-07-29T04:04:00;101620.41;;;10.69;0.00
22657;BME280;11495;55.610;12.100;2022-07-29T04:06:25;101611.12;;;10.76;0.00
22657;BME280;11495;55.610;12.100;2022-07-29T04:08:51;101615.34;;;10.83;0.00
22657;BME280;11495;55.610;12.100;2022-07-29T04:11:17;101605.50;;;10.87;0.00
22657;BME280;11495;55.610;12.100;2022-07-29T04:13:42;101606.13;;;10.94;0.00
22657;BME280;11495;55.610;12.100;2022-07-29T04:16:07;101602.84;;;10.97;0.00
22657;BME280;11495;55.610;12.100;2022-07-29T04:18:33;101602.84;;;10.97;0.00
22657;BME280;11495;55.610;12.100;2022-07-29T04:20:58;101605.34;;;10.99;0.00
22657;BME280;11495;55.610;12.100;2022-07-29T04:23:26;101592.72;;;11.03;0.00
22657;BME280;11495;55.610;12.100;2022-07-29T04:25:52;101587.84;;;11.10;0.00
22657;BME280;11495;55.610;12.100;2022-07-29T04:28:17;101596.19;;;11.20;0.00
22657;BME280;11495;55.610;12.100;2022-07-29T04:30:43;101590.22;;;11.29;0.00
22657;BME280;11495;55.610;12.100;2022-07-29T04:33:08;101585.13;;;11.42;0.00
22657;BME280;11495;55.610;12.100;2022-07-29T04:35:38;101567.09;;;11.62;0.00
22657;BME280;11495;55.610;12.100;2022-07-29T04:38:04;101556.13;;;11.67;0.00
22657;BME280;11495;55.610;12.100;2022-07-29T04:40:30;101559.44;;;11.69;0.00
22657;BME280;11495;55.610;12.100;2022-07-29T04:42:58;101560.56;;;11.73;0.00
22657;BME280;11495;55.610;12.100;2022-07-29T04:45:23;101544.75;;;11.95;0.00
22657;BME280;11495;55.610;12.100;2022-07-29T04:47:49;101518.75;;;12.38;0.00
22657;BME280;11495;55.610;12.100;2022-07-29T04:50:15;101498.44;;;12.80;0.00
22657;BME280;11495;55.610;12.100;2022-07-29T04:52:40;101474.75;;;13.35;0.00
22657;BME280;11495;55.610;12.100;2022-07-29T04:55:06;101454.97;;;13.88;0.00
22657;BME280;11495;55.610;12.100;2022-07-29T04:57:31;101434.25;;;14.45;0.00
22657;BME280;11495;55.610;12.100;2022-07-29T04:59:57;101413.13;;;14.98;0.00
22657;BME280;11495;55.610;12.100;2022-07-29T05:02:22;101389.44;;;15.40;0.00
22657;BME280;11495;55.610;12.100;2022-07-29T05:04:48;101384.50;;;15.61;0.00
22657;BME280;11495;55.610;12.100;2022-07-29T05:07:14;101368.53;;;15.71;0.00
22657;BME280;11495;55.610;12.100;2022-07-29T05:09:39;101363.81;;;15.72;0.00
22657;BME280;11495;55.610;12.100;2022-07-29T05:12:05;101374.09;;;15.48;0.00
22657;BME280;11495;55.610;12.100;2022-07-29T05:14:30;101382.97;;;15.44;0.00
22657;BME280;11495;55.610;12.100;2022-07-29T05:16:56;101382.81;;;15.36;0.00
22657;BME280;11495;55.610;12.100;2022-07-29T05:19:22;101385.91;;;15.29;0.00
22657;BME280;11495;55.610;12.100;2022-07-29T05:21:48;101384.28;;;15.28;0.00
22657;BME280;11495;55.610;12.100;2022-07-29T05:24:13;101387.03;;;15.28;0.00
22657;BME280;11495;55.610;12.100;2022-07-29T05:26:39;101383.59;;;15.41;0.00
22657;BME280;11495;55.610;12.100;2022-07-29T05:29:05;101373.34;;;15.66;0.00
22657;BME280;11495;55.610;12.100;2022-07-29T05:31:30;101361.31;;;15.94;0.00
22657;BME280;11495;55.610;12.100;2022-07-29T05:33:56;101355.56;;;16.10;0.00
22657;BME280;11495;55.610;12.100;2022-07-29T05:36:21;101346.25;;;16.19;0.00
22657;BME280;11495;55.610;12.100;2022-07-29T05:38:46;101346.84;;;16.35;0.00
22657;BME280;11495;55.610;12.100;2022-07-29T05:41:12;101345.87;;;16.45;0.00
22657;BME280;11495;55.610;12.100;2022-07-29T05:43:37;101335.78;;;16.68;0.00
22657;BME280;11495;55.610;12.100;2022-07-29T05:46:02;101328.22;;;16.87;0.00
22657;BME280;11495;55.610;12.100;2022-07-29T05:48:28;101316.03;;;17.16;0.00
22657;BME280;11495;55.610;12.100;2022-07-29T05:50:53;101315.00;;;17.11;0.00
22657;BME280;11495;55.610;12.100;2022-07-29T05:53:19;101318.19;;;17.19;0.00
22657;BME280;11495;55.610;12.100;2022-07-29T05:55:45;101320.16;;;17.32;0.00
22657;BME280;11495;55.610;12.100;2022-07-29T05:58:10;101330.88;;;17.52;0.00
22657;BME280;11495;55.610;12.100;2022-07-29T06:00:35;101337.34;;;17.61;0.00
22657;BME280;11495;55.610;12.100;2022-07-29T06:03:01;101342.63;;;17.90;0.00
22657;BME280;11495;55.610;12.100;2022-07-29T06:05:26;101364.22;;;18.07;0.00
22657;BME280;11495;55.610;12.100;2022-07-29T06:07:51;101392.50;;;18.37;0.00
22657;BME280;11495;55.610;12.100;2022-07-29T06:10:17;101416.63;;;18.77;0.00
22657;BME280;11495;55.610;12.100;2022-07-29T06:12:44;101474.94;;;18.88;0.00
22657;BME280;11495;55.610;12.100;2022-07-29T06:15:09;101546.75;;;19.27;0.00
22657;BME280;11495;55.610;12.100;2022-07-29T06:17:35;101626.31;;;19.60;0.00
22657;BME280;11495;55.610;12.100;2022-07-29T06:20:00;101708.37;;;19.96;0.00
22657;BME280;11495;55.610;12.100;2022-07-29T06:22:26;101813.44;;;20.28;0.00
22657;BME280;11495;55.610;12.100;2022-07-29T06:24:51;101948.00;;;20.57;0.00
22657;BME280;11495;55.610;12.100;2022-07-29T06:27:16;102235.44;;;20.55;0.00
22657;BME280;11495;55.610;12.100;2022-07-29T06:29:42;102313.72;;;20.55;0.00
22657;BME280;11495;55.610;12.100;2022-07-29T06:32:07;102057.78;;;20.49;0.00
22657;BME280;11495;55.610;12.100;2022-07-29T06:34:35;101944.72;;;20.41;0.00
22657;BME280;11495;55.610;12.100;2022-07-29T06:37:00;102821.44;;;20.56;0.00
22657;BME280;11495;55.610;12.100;2022-07-29T06:39:30;102858.78;;;20.70;0.00
22657;BME280;11495;55.610;12.100;2022-07-29T06:41:55;102866.38;;;20.94;0.00
22657;BME280;11495;55.610;12.100;2022-07-29T06:44:21;102879.91;;;21.11;0.00
22657;BME280;11495;55.610;12.100;2022-07-29T06:46:46;102922.91;;;21.20;0.00
22657;BME280;11495;55.610;12.100;2022-07-29T06:49:14;102927.81;;;21.33;0.00
22657;BME280;11495;55.610;12.100;2022-07-29T06:51:39;102929.41;;;21.44;0.00
22657;BME280;11495;55.610;12.100;2022-07-29T06:54:05;102926.84;;;21.67;0.00
22657;BME280;11495;55.610;12.100;2022-07-29T06:56:31;102926.34;;;21.65;0.00
22657;BME280;11495;55.610;12.100;2022-07-29T06:58:57;102910.72;;;22.01;0.00
22657;BME280;11495;55.610;12.100;2022-07-29T07:01:23;102917.53;;;21.95;0.00
22657;BME280;11495;55.610;12.100;2022-07-29T07:03:48;102918.88;;;21.98;0.00
22657;BME280;11495;55.610;12.100;2022-07-29T07:06:13;102905.00;;;22.11;0.00
22657;BME280;11495;55.610;12.100;2022-07-29T07:08:39;102803.91;;;22.03;0.00
22657;BME280;11495;55.610;12.100;2022-07-29T07:11:04;102712.25;;;22.03;0.00
22657;BME280;11495;55.610;12.100;2022-07-29T07:13:31;101769.72;;;22.34;0.00
22657;BME280;11495;55.610;12.100;2022-07-29T07:16:01;99598.69;;;22.31;0.00
22657;BME280;11495;55.610;12.100;2022-07-29T07:18:26;100698.81;;;22.55;0.00
22657;BME280;11495;55.610;12.100;2022-07-29T07:20:51;100983.66;;;22.84;0.00
22657;BME280;11495;55.610;12.100;2022-07-29T07:23:17;101231.72;;;22.95;0.00
22657;BME280;11495;55.610;12.100;2022-07-29T07:25:42;101420.41;;;23.04;0.00
22657;BME280;11495;55.610;12.100;2022-07-29T07:28:08;101508.22;;;23.05;0.00
22657;BME280;11495;55.610;12.100;2022-07-29T07:30:33;101591.72;;;23.08;0.00
22657;BME280;11495;55.610;12.100;2022-07-29T07:32:59;101647.13;;;23.40;0.00
22657;BME280;11495;55.610;12.100;2022-07-29T07:35:25;101658.75;;;23.60;0.00
22657;BME280;11495;55.610;12.100;2022-07-29T07:37:53;101662.47;;;23.85;0.00
22657;BME280;11495;55.610;12.100;2022-07-29T07:40:18;101677.34;;;23.64;0.00
22657;BME280;11495;55.610;12.100;2022-07-29T07:42:43;101670.06;;;23.21;0.00
22657;BME280;11495;55.610;12.100;2022-07-29T07:45:09;101656.16;;;23.46;0.00
22657;BME280;11495;55.610;12.100;2022-07-29T07:47:36;101674.81;;;23.00;0.00
22657;BME280;11495;55.610;12.100;2022-07-29T07:50:04;101661.72;;;22.75;0.00
22657;BME280;11495;55.610;12.100;2022-07-29T07:52:29;101660.16;;;22.94;0.00
22657;BME280;11495;55.610;12.100;2022-07-29T07:54:55;101658.81;;;22.62;0.00
22657;BME280;11495;55.610;12.100;2022-07-29T07:57:20;101656.53;;;22.94;0.00
22657;BME280;11495;55.610;12.100;2022-07-29T07:59:45;101664.56;;;23.25;0.00
22657;BME280;11495;55.610;12.100;2022-07-29T08:02:11;101667.47;;;23.37;0.00
22657;BME280;11495;55.610;12.100;2022-07-29T08:04:36;101669.81;;;23.77;0.00
22657;BME280;11495;55.610;12.100;2022-07-29T08:07:02;101682.91;;;24.06;0.00
22657;BME280;11495;55.610;12.100;2022-07-29T08:09:28;101679.34;;;23.85;0.00
22657;BME280;11495;55.610;12.100;2022-07-29T08:11:55;101683.44;;;23.66;0.00
22657;BME280;11495;55.610;12.100;2022-07-29T08:14:20;101703.16;;;23.07;0.00
22657;BME280;11495;55.610;12.100;2022-07-29T08:16:46;101697.63;;;22.90;0.00
22657;BME280;11495;55.610;12.100;2022-07-29T08:19:13;101691.88;;;23.16;0.00
22657;BME280;11495;55.610;12.100;2022-07-29T08:21:39;101687.13;;;23.08;0.00
22657;BME280;11495;55.610;12.100;2022-07-29T08:24:04;101693.03;;;23.44;0.00
22657;BME280;11495;55.610;12.100;2022-07-29T08:26:49;101695.78;;;23.74;0.00
22657;BME280;11495;55.610;12.100;2022-07-29T08:29:14;101701.91;;;23.46;0.00
22657;BME280;11495;55.610;12.100;2022-07-29T08:31:40;101691.88;;;23.66;0.00
22657;BME280;11495;55.610;12.100;2022-07-29T08:34:06;101699.28;;;23.92;0.00
22657;BME280;11495;55.610;12.100;2022-07-29T08:36:32;101697.03;;;24.18;0.00
22657;BME280;11495;55.610;12.100;2022-07-29T08:38:58;101698.03;;;24.47;0.00
22657;BME280;11495;55.610;12.100;2022-07-29T08:41:24;101690.22;;;24.89;0.00
22657;BME280;11495;55.610;12.100;2022-07-29T08:43:50;101689.72;;;25.48;0.00
22657;BME280;11495;55.610;12.100;2022-07-29T08:46:16;101675.47;;;25.04;0.00
22657;BME280;11495;55.610;12.100;2022-07-29T08:48:42;101684.00;;;25.44;0.00
22657;BME280;11495;55.610;12.100;2022-07-29T08:51:08;101675.69;;;25.64;0.00
22657;BME280;11495;55.610;12.100;2022-07-29T08:53:40;101686.75;;;25.04;0.00
22657;BME280;11495;55.610;12.100;2022-07-29T08:56:06;101675.72;;;24.99;0.00
22657;BME280;11495;55.610;12.100;2022-07-29T08:58:32;101681.13;;;25.04;0.00
22657;BME280;11495;55.610;12.100;2022-07-29T09:01:01;101687.06;;;24.78;0.00
22657;BME280;11495;55.610;12.100;2022-07-29T09:03:30;101691.06;;;25.14;0.00
22657;BME280;11495;55.610;12.100;2022-07-29T09:06:00;101695.06;;;25.13;0.00
22657;BME280;11495;55.610;12.100;2022-07-29T09:08:26;101693.81;;;25.75;0.00
22657;BME280;11495;55.610;12.100;2022-07-29T09:10:52;101690.81;;;25.31;0.00
22657;BME280;11495;55.610;12.100;2022-07-29T09:13:18;101696.72;;;25.26;0.00
22657;BME280;11495;55.610;12.100;2022-07-29T09:15:44;101700.50;;;25.58;0.00
22657;BME280;11495;55.610;12.100;2022-07-29T09:18:10;101698.44;;;25.31;0.00
22657;BME280;11495;55.610;12.100;2022-07-29T09:20:35;101701.94;;;25.92;0.00
22657;BME280;11495;55.610;12.100;2022-07-29T09:23:19;101698.75;;;26.22;0.00
22657;BME280;11495;55.610;12.100;2022-07-29T09:25:45;101694.44;;;26.40;0.00
22657;BME280;11495;55.610;12.100;2022-07-29T09:28:13;101697.19;;;26.52;0.00
22657;BME280;11495;55.610;12.100;2022-07-29T09:30:57;101692.34;;;26.84;0.00
22657;BME280;11495;55.610;12.100;2022-07-29T09:33:24;101708.41;;;26.65;0.00
22657;BME280;11495;55.610;12.100;2022-07-29T09:36:14;101700.31;;;25.91;0.00
22657;BME280;11495;55.610;12.100;2022-07-29T09:38:39;101699.75;;;25.86;0.00
22657;BME280;11495;55.610;12.100;2022-07-29T09:41:05;101707.94;;;25.38;0.00
22657;BME280;11495;55.610;12.100;2022-07-29T09:43:31;101705.03;;;24.86;0.00
22657;BME280;11495;55.610;12.100;2022-07-29T09:46:09;101704.53;;;24.59;0.00
22657;BME280;11495;55.610;12.100;2022-07-29T09:48:35;101712.63;;;24.28;0.00
22657;BME280;11495;55.610;12.100;2022-07-29T09:51:00;101705.66;;;24.34;0.00
22657;BME280;11495;55.610;12.100;2022-07-29T09:53:34;101709.47;;;24.29;0.00
22657;BME280;11495;55.610;12.100;2022-07-29T09:56:01;101707.19;;;23.90;0.00
22657;BME280;11495;55.610;12.100;2022-07-29T09:58:27;101718.81;;;23.08;0.00
22657;BME280;11495;55.610;12.100;2022-07-29T10:00:53;101708.81;;;23.28;0.00
22657;BME280;11495;55.610;12.100;2022-07-29T10:03:20;101714.72;;;23.56;0.00
22657;BME280;11495;55.610;12.100;2022-07-29T10:05:47;101707.31;;;24.14;0.00
22657;BME280;11495;55.610;12.100;2022-07-29T10:08:28;101700.31;;;24.20;0.00
22657;BME280;11495;55.610;12.100;2022-07-29T10:11:09;101703.31;;;24.15;0.00
22657;BME280;11495;55.610;12.100;2022-07-29T10:13:35;101697.78;;;24.06;0.00
22657;BME280;11495;55.610;12.100;2022-07-29T10:16:00;101692.94;;;23.95;0.00
22657;BME280;11495;55.610;12.100;2022-07-29T10:18:26;101699.09;;;24.09;0.00
22657;BME280;11495;55.610;12.100;2022-07-29T10:20:52;101693.75;;;24.61;0.00
22657;BME280;11495;55.610;12.100;2022-07-29T10:23:18;101686.22;;;24.65;0.00
22657;BME280;11495;55.610;12.100;2022-07-29T10:25:45;101695.03;;;24.88;0.00
22657;BME280;11495;55.610;12.100;2022-07-29T10:28:11;101690.94;;;24.61;0.00
22657;BME280;11495;55.610;12.100;2022-07-29T10:30:37;101690.47;;;24.59;0.00
22657;BME280;11495;55.610;12.100;2022-07-29T10:36:07;101687.31;;;24.85;0.00
22657;BME280;11495;55.610;12.100;2022-07-29T10:44:22;101688.94;;;24.99;0.00
22657;BME280;11495;55.610;12.100;2022-07-29T10:46:49;101698.22;;;24.29;0.00
22657;BME280;11495;55.610;12.100;2022-07-29T10:49:23;101681.78;;;24.52;0.00
22657;BME280;11495;55.610;12.100;2022-07-29T10:52:03;101681.47;;;25.03;0.00
22657;BME280;11495;55.610;12.100;2022-07-29T10:59:39;101687.75;;;24.51;0.00
22657;BME280;11495;55.610;12.100;2022-07-29T11:05:05;101688.22;;;24.89;0.00
22657;BME280;11495;55.610;12.100;2022-07-29T11:07:32;101688.00;;;24.82;0.00
22657;BME280;11495;55.610;12.100;2022-07-29T11:15:04;101674.00;;;25.87;0.00
22657;BME280;11495;55.610;12.100;2022-07-29T11:20:35;101680.47;;;25.88;0.00
22657;BME280;11495;55.610;12.100;2022-07-29T11:23:02;101672.41;;;26.77;0.00
22657;BME280;11495;55.610;12.100;2022-07-29T11:25:42;101662.50;;;26.52;0.00
22657;BME280;11495;55.610;12.100;2022-07-29T11:28:12;101664.81;;;26.34;0.00
22657;BME280;11495;55.610;12.100;2022-07-29T11:30:51;101671.41;;;26.38;0.00
22657;BME280;11495;55.610;12.100;2022-07-29T11:33:30;101672.28;;;26.26;0.00
22657;BME280;11495;55.610;12.100;2022-07-29T11:36:10;101663.06;;;26.14;0.00
22657;BME280;11495;55.610;12.100;2022-07-29T11:38:36;101662.09;;;26.38;0.00
22657;BME280;11495;55.610;12.100;2022-07-29T11:49:08;101664.25;;;26.13;0.00
22657;BME280;11495;55.610;12.100;2022-07-29T11:51:38;101659.16;;;25.74;0.00
22657;BME280;11495;55.610;12.100;2022-07-29T11:54:04;101659.50;;;25.73;0.00
22657;BME280;11495;55.610;12.100;2022-07-29T11:56:34;101659.53;;;26.17;0.00
22657;BME280;11495;55.610;12.100;2022-07-29T11:59:05;101653.72;;;26.73;0.00
22657;BME280;11495;55.610;12.100;2022-07-29T12:01:31;101658.34;;;26.97;0.00
22657;BME280;11495;55.610;12.100;2022-07-29T12:04:05;101661.13;;;26.77;0.00
22657;BME280;11495;55.610;12.100;2022-07-29T12:06:32;101639.19;;;26.55;0.00
22657;BME280;11495;55.610;12.100;2022-07-29T12:08:57;101652.38;;;26.82;0.00
22657;BME280;11495;55.610;12.100;2022-07-29T12:11:23;101643.78;;;27.10;0.00
22657;BME280;11495;55.610;12.100;2022-07-29T12:13:50;101650.00;;;27.35;0.00
22657;BME280;11495;55.610;12.100;2022-07-29T12:16:16;101656.41;;;26.81;0.00
22657;BME280;11495;55.610;12.100;2022-07-29T12:18:41;101649.31;;;26.40;0.00
22657;BME280;11495;55.610;12.100;2022-07-29T12:21:07;101656.03;;;26.67;0.00
22657;BME280;11495;55.610;12.100;2022-07-29T12:23:33;101652.66;;;26.62;0.00
22657;BME280;11495;55.610;12.100;2022-07-29T12:25:59;101657.63;;;26.21;0.00
22657;BME280;11495;55.610;12.100;2022-07-29T12:28:24;101650.53;;;25.83;0.00
22657;BME280;11495;55.610;12.100;2022-07-29T12:30:51;101649.81;;;25.86;0.00
22657;BME280;11495;55.610;12.100;2022-07-29T12:33:25;101649.06;;;25.33;0.00
